createdAt,value
2024-02-26T00:02:10.673Z,5.50
2024-02-26T00:04:37.444Z,5.50
2024-02-26T00:07:04.378Z,5.40
2024-02-26T00:09:31.469Z,5.40
2024-02-26T00:11:58.274Z,5.50
2024-02-26T00:14:25.118Z,5.50
2024-02-26T00:16:53.259Z,5.50
2024-02-26T00:19:20.210Z,5.50
2024-02-26T00:21:47.122Z,5.50
2024-02-26T00:24:14.057Z,5.40
2024-02-26T00:26:40.922Z,5.30
2024-02-26T00:29:07.694Z,5.20
2024-02-26T00:31:34.572Z,5.30
2024-02-26T00:34:03.059Z,5.30
2024-02-26T00:36:29.999Z,5.30
2024-02-26T00:38:56.973Z,5.40
2024-02-26T00:41:23.790Z,5.30
2024-02-26T00:43:50.529Z,5.20
2024-02-26T00:46:17.407Z,5.30
2024-02-26T00:48:44.305Z,5.30
2024-02-26T00:51:12.568Z,5.10
2024-02-26T00:53:39.387Z,5.20
2024-02-26T00:56:06.549Z,5.10
2024-02-26T00:58:33.427Z,5.20
2024-02-26T01:01:00.254Z,5.20
2024-02-26T01:03:27.101Z,5.10
2024-02-26T01:05:56.740Z,5.10
2024-02-26T01:08:26.883Z,5.00
2024-02-26T01:10:53.725Z,5.00
2024-02-26T01:13:20.627Z,4.90
2024-02-26T01:15:47.578Z,4.90
2024-02-26T01:18:14.531Z,5.00
2024-02-26T01:20:41.578Z,5.10
2024-02-26T01:23:08.382Z,5.00
2024-02-26T01:25:36.513Z,5.00
2024-02-26T01:28:03.565Z,5.00
2024-02-26T01:30:30.467Z,4.90
2024-02-26T01:32:57.433Z,4.80
2024-02-26T01:35:24.313Z,4.70
2024-02-26T01:37:51.099Z,4.70
2024-02-26T01:40:17.903Z,4.70
2024-02-26T01:42:46.074Z,4.70
2024-02-26T01:45:16.982Z,4.80
2024-02-26T01:47:46.814Z,4.90
2024-02-26T01:50:13.985Z,5.00
2024-02-26T01:52:41.031Z,4.90
2024-02-26T01:55:08.876Z,4.90
2024-02-26T01:57:35.947Z,4.90
2024-02-26T02:00:04.857Z,4.90
2024-02-26T02:02:32.169Z,4.80
2024-02-26T02:04:58.937Z,4.90
2024-02-26T02:07:25.973Z,4.80
2024-02-26T02:09:54.070Z,4.80
2024-02-26T02:12:21.022Z,4.80
2024-02-26T02:14:47.936Z,4.70
2024-02-26T02:17:16.180Z,4.60
2024-02-26T02:19:42.995Z,4.60
2024-02-26T02:22:11.178Z,4.60
2024-02-26T02:24:37.958Z,4.70
2024-02-26T02:27:05.362Z,4.70
2024-02-26T02:29:32.482Z,4.70
2024-02-26T02:32:00.071Z,4.60
2024-02-26T02:34:27.231Z,4.60
2024-02-26T02:36:54.467Z,4.60
2024-02-26T02:39:22.845Z,4.60
2024-02-26T02:41:49.699Z,4.50
2024-02-26T02:44:16.607Z,4.60
2024-02-26T02:46:43.520Z,4.70
2024-02-26T02:49:10.689Z,4.60
2024-02-26T02:51:37.614Z,4.60
2024-02-26T02:54:04.654Z,4.60
2024-02-26T02:56:32.858Z,4.60
2024-02-26T02:58:59.678Z,4.60
2024-02-26T03:01:26.482Z,4.60
2024-02-26T03:03:53.285Z,4.50
2024-02-26T03:06:20.205Z,4.40
2024-02-26T03:08:47.074Z,4.40
2024-02-26T03:11:14.934Z,4.40
2024-02-26T03:13:43.205Z,4.40
2024-02-26T03:16:10.384Z,4.40
2024-02-26T03:18:39.422Z,4.40
2024-02-26T03:21:06.330Z,4.50
2024-02-26T03:23:33.607Z,4.50
2024-02-26T03:26:00.377Z,4.50
2024-02-26T03:28:27.149Z,4.50
2024-02-26T03:30:55.301Z,4.50
2024-02-26T03:33:23.149Z,4.50
2024-02-26T03:35:54.038Z,4.50
2024-02-26T03:38:20.861Z,4.50
2024-02-26T03:40:47.668Z,4.50
2024-02-26T03:43:14.679Z,4.60
2024-02-26T03:45:41.474Z,4.50
2024-02-26T03:48:09.847Z,4.60
2024-02-26T03:50:38.720Z,4.60
2024-02-26T03:53:05.963Z,4.60
2024-02-26T03:55:32.752Z,4.50
2024-02-26T03:57:59.528Z,4.60
2024-02-26T04:00:26.362Z,4.60
2024-02-26T04:02:53.241Z,4.60
2024-02-26T04:05:21.605Z,4.60
2024-02-26T04:07:48.395Z,4.70
2024-02-26T04:10:15.530Z,4.60
2024-02-26T04:12:43.200Z,4.60
2024-02-26T04:15:11.049Z,4.60
2024-02-26T04:17:38.651Z,4.50
2024-02-26T04:20:06.993Z,4.50
2024-02-26T04:22:35.147Z,4.60
2024-02-26T04:25:01.978Z,4.60
2024-02-26T04:27:28.800Z,4.60
2024-02-26T04:29:55.662Z,4.60
2024-02-26T04:32:22.503Z,4.50
2024-02-26T04:34:49.441Z,4.50
2024-02-26T04:37:16.270Z,4.50
2024-02-26T04:39:44.378Z,4.50
2024-02-26T04:42:11.179Z,4.50
2024-02-26T04:44:38.001Z,4.60
2024-02-26T04:47:04.870Z,4.50
2024-02-26T04:49:31.778Z,4.50
2024-02-26T04:51:58.649Z,4.40
2024-02-26T04:54:25.547Z,4.40
2024-02-26T04:56:53.737Z,4.40
2024-02-26T04:59:20.530Z,4.30
2024-02-26T05:01:47.400Z,4.40
2024-02-26T05:04:14.402Z,4.40
2024-02-26T05:06:41.328Z,4.40
2024-02-26T05:09:08.222Z,4.40
2024-02-26T05:11:35.054Z,4.40
2024-02-26T05:14:03.657Z,4.50
2024-02-26T05:16:30.494Z,4.50
2024-02-26T05:18:57.435Z,4.50
2024-02-26T05:21:24.359Z,4.50
2024-02-26T05:23:51.242Z,4.50
2024-02-26T05:26:21.213Z,4.40
2024-02-26T05:28:48.242Z,4.40
2024-02-26T05:31:17.002Z,4.40
2024-02-26T05:33:44.133Z,4.40
2024-02-26T05:36:11.307Z,4.40
2024-02-26T05:38:38.140Z,4.40
2024-02-26T05:41:04.998Z,4.50
2024-02-26T05:43:31.777Z,4.40
2024-02-26T05:45:58.575Z,4.30
2024-02-26T05:48:26.838Z,4.30
2024-02-26T05:50:53.700Z,4.30
2024-02-26T05:53:20.481Z,4.20
2024-02-26T05:55:47.286Z,4.30
2024-02-26T05:58:14.083Z,4.30
2024-02-26T06:00:41.054Z,4.30
2024-02-26T06:03:08.169Z,4.30
2024-02-26T06:05:36.495Z,4.30
2024-02-26T06:08:03.338Z,4.20
2024-02-26T06:10:30.161Z,4.20
2024-02-26T06:12:56.994Z,4.20
2024-02-26T06:15:23.841Z,4.20
2024-02-26T06:17:50.729Z,4.20
2024-02-26T06:20:17.679Z,4.30
2024-02-26T06:22:45.845Z,4.30
2024-02-26T06:25:12.638Z,4.20
2024-02-26T06:27:39.462Z,4.20
2024-02-26T06:33:35.262Z,4.20
2024-02-26T06:36:02.330Z,4.20
2024-02-26T06:38:30.498Z,4.20
2024-02-26T06:40:57.512Z,4.20
2024-02-26T06:43:55.465Z,4.20
2024-02-26T06:46:22.436Z,4.20
2024-02-26T06:48:51.097Z,4.30
2024-02-26T06:51:19.842Z,4.20
2024-02-26T06:53:48.127Z,4.30
2024-02-26T06:56:14.981Z,4.30
2024-02-26T07:01:30.247Z,4.30
2024-02-26T07:03:57.102Z,4.30
2024-02-26T07:06:24.064Z,4.30
2024-02-26T07:08:52.286Z,4.30
2024-02-26T07:11:19.137Z,4.30
2024-02-26T07:13:45.971Z,4.30
2024-02-26T07:16:12.843Z,4.30
2024-02-26T07:18:40.421Z,4.30
2024-02-26T07:21:07.321Z,4.30
2024-02-26T07:23:34.189Z,4.40
2024-02-26T07:26:02.389Z,4.40
2024-02-26T07:28:29.246Z,4.40
2024-02-26T07:30:56.326Z,4.40
2024-02-26T07:33:23.336Z,4.50
2024-02-26T07:35:50.310Z,4.50
2024-02-26T07:38:23.375Z,4.60
2024-02-26T07:41:03.425Z,4.60
2024-02-26T07:43:32.185Z,4.60
2024-02-26T07:45:59.081Z,4.60
2024-02-26T07:48:26.084Z,4.60
2024-02-26T07:50:53.017Z,4.60
2024-02-26T07:53:19.807Z,4.60
2024-02-26T07:55:46.630Z,4.60
2024-02-26T07:58:13.430Z,4.70
2024-02-26T08:00:41.574Z,4.60
2024-02-26T08:03:08.458Z,4.70
2024-02-26T08:05:35.365Z,4.70
2024-02-26T08:08:02.231Z,4.80
2024-02-26T08:10:32.480Z,4.80
2024-02-26T08:13:00.276Z,4.80
2024-02-26T08:15:27.287Z,4.80
2024-02-26T08:17:55.551Z,4.80
2024-02-26T08:20:22.427Z,4.80
2024-02-26T08:22:49.222Z,4.90
2024-02-26T08:25:16.036Z,4.90
2024-02-26T08:27:43.003Z,4.90
2024-02-26T08:30:10.871Z,4.90
2024-02-26T08:32:38.261Z,4.90
2024-02-26T08:35:07.089Z,4.90
2024-02-26T08:37:33.931Z,4.90
2024-02-26T08:40:04.921Z,5.00
2024-02-26T08:42:33.267Z,5.00
2024-02-26T08:45:00.269Z,5.00
2024-02-26T08:47:27.151Z,5.10
2024-02-26T08:49:53.990Z,5.10
2024-02-26T08:52:22.173Z,5.10
2024-02-26T08:54:49.880Z,5.10
2024-02-26T08:57:16.743Z,5.20
2024-02-26T08:59:43.598Z,5.20
2024-02-26T09:02:10.468Z,5.20
2024-02-26T09:04:37.384Z,5.20
2024-02-26T09:07:04.616Z,5.20
2024-02-26T09:09:33.009Z,5.20
2024-02-26T09:11:59.907Z,5.20
2024-02-26T09:14:28.405Z,5.20
2024-02-26T09:16:55.497Z,5.20
2024-02-26T09:19:22.396Z,5.20
2024-02-26T09:21:49.301Z,5.30
2024-02-26T09:24:16.222Z,5.20
2024-02-26T09:26:44.504Z,5.20
2024-02-26T09:29:11.345Z,5.30
2024-02-26T09:31:38.196Z,5.30
2024-02-26T09:34:05.146Z,5.30
2024-02-26T09:36:32.080Z,5.30
2024-02-26T09:39:01.597Z,5.30
2024-02-26T09:41:29.909Z,5.30
2024-02-26T09:43:59.053Z,5.30
2024-02-26T09:46:26.799Z,5.40
2024-02-26T09:55:14.348Z,5.40
2024-02-26T09:57:46.276Z,5.40
2024-02-26T10:00:18.280Z,5.50
2024-02-26T10:02:46.887Z,5.50
2024-02-26T10:05:17.821Z,5.50
2024-02-26T10:07:45.741Z,5.50
2024-02-26T10:10:13.088Z,5.50
2024-02-26T10:12:39.945Z,5.50
2024-02-26T10:15:07.639Z,5.60
2024-02-26T10:17:36.607Z,5.60
2024-02-26T10:20:14.454Z,5.60
2024-02-26T10:22:42.061Z,5.60
2024-02-26T10:25:09.512Z,5.60
2024-02-26T10:27:36.577Z,5.70
2024-02-26T10:30:04.853Z,5.70
2024-02-26T10:32:31.869Z,5.70
2024-02-26T10:35:00.084Z,5.70
2024-02-26T10:37:29.278Z,5.70
2024-02-26T10:39:57.543Z,5.70
2024-02-26T10:42:24.381Z,5.70
2024-02-26T10:44:51.236Z,5.70
2024-02-26T10:47:18.074Z,5.70
2024-02-26T10:49:48.512Z,5.80
2024-02-26T10:52:18.047Z,5.80
2024-02-26T10:54:48.582Z,5.80
2024-02-26T10:57:18.869Z,5.80
2024-02-26T10:59:46.495Z,5.90
2024-02-26T11:02:14.628Z,5.90
2024-02-26T11:04:41.773Z,5.90
2024-02-26T11:07:11.607Z,5.90
2024-02-26T11:09:41.028Z,6.00
2024-02-26T11:12:10.319Z,6.00
2024-02-26T11:14:37.409Z,6.10
2024-02-26T11:17:04.422Z,6.10
2024-02-26T11:19:34.509Z,6.10
2024-02-26T11:22:12.170Z,6.10
2024-02-26T11:24:48.282Z,6.20
2024-02-26T11:27:18.271Z,6.20
2024-02-26T11:29:50.294Z,6.20
2024-02-26T11:32:17.331Z,6.20
2024-02-26T11:34:45.054Z,6.20
2024-02-26T11:37:12.558Z,6.20
2024-02-26T11:39:41.445Z,6.30
2024-02-26T11:42:10.560Z,6.30
2024-02-26T11:44:37.396Z,6.30
2024-02-26T11:47:13.818Z,6.30
2024-02-26T11:49:40.937Z,6.30
2024-02-26T11:52:09.518Z,6.30
2024-02-26T11:54:40.631Z,6.30
2024-02-26T11:57:23.189Z,6.40
2024-02-26T11:59:50.516Z,6.40
2024-02-26T12:02:41.958Z,6.40
2024-02-26T12:05:12.155Z,6.40
2024-02-26T12:07:41.291Z,6.50
2024-02-26T12:10:26.000Z,6.50
2024-02-26T12:12:59.249Z,6.50
2024-02-26T12:15:30.972Z,6.50
2024-02-26T12:17:58.140Z,6.60
2024-02-26T12:20:25.029Z,6.60
2024-02-26T12:22:53.087Z,6.60
2024-02-26T12:25:24.529Z,6.60
2024-02-26T12:27:51.363Z,6.70
2024-02-26T12:30:19.888Z,6.70
2024-02-26T12:32:47.006Z,6.70
2024-02-26T12:35:14.025Z,6.70
2024-02-26T12:37:44.229Z,6.80
2024-02-26T12:40:12.508Z,6.80
2024-02-26T12:42:40.134Z,6.80
2024-02-26T12:45:08.498Z,6.80
2024-02-26T12:47:38.091Z,6.80
2024-02-26T12:50:09.183Z,6.90
2024-02-26T12:52:37.912Z,6.90
2024-02-26T12:55:06.129Z,6.90
2024-02-26T12:57:33.912Z,6.90
2024-02-26T13:00:01.697Z,7.00
2024-02-26T13:02:28.994Z,7.00
2024-02-26T13:04:57.633Z,7.00
2024-02-26T13:07:24.718Z,7.00
2024-02-26T13:09:53.098Z,7.00
2024-02-26T13:12:19.919Z,7.00
2024-02-26T13:14:46.754Z,7.00
2024-02-26T13:17:13.646Z,7.10
2024-02-26T13:19:50.488Z,7.10
2024-02-26T13:22:22.116Z,7.10
2024-02-26T13:24:55.122Z,7.10
2024-02-26T13:27:23.101Z,7.10
2024-02-26T13:29:49.957Z,7.10
2024-02-26T13:32:16.807Z,7.10
2024-02-26T13:34:43.805Z,7.10
2024-02-26T13:37:10.688Z,7.20
2024-02-26T13:39:42.067Z,7.20
2024-02-26T13:42:09.539Z,7.20
2024-02-26T13:44:36.324Z,7.20
2024-02-26T13:47:03.108Z,7.20
2024-02-26T13:49:29.991Z,7.20
2024-02-26T13:51:56.840Z,7.20
2024-02-26T13:54:23.691Z,7.20
2024-02-26T13:56:51.923Z,7.20
2024-02-26T13:59:19.261Z,7.20
2024-02-26T14:01:46.058Z,7.20
2024-02-26T14:04:12.994Z,7.20
2024-02-26T14:06:40.888Z,7.20
2024-02-26T14:09:07.875Z,7.20
2024-02-26T14:11:34.801Z,7.20
2024-02-26T14:14:03.013Z,7.30
2024-02-26T14:16:32.546Z,7.30
2024-02-26T14:18:59.764Z,7.30
2024-02-26T14:21:26.812Z,7.30
2024-02-26T14:23:53.636Z,7.20
2024-02-26T14:26:20.418Z,7.30
2024-02-26T14:28:47.215Z,7.20
2024-02-26T14:31:19.090Z,7.20
2024-02-26T14:33:46.065Z,7.30
2024-02-26T14:36:13.272Z,7.30
2024-02-26T14:38:40.144Z,7.30
2024-02-26T14:41:06.969Z,7.30
2024-02-26T14:43:33.749Z,7.30
2024-02-26T14:46:00.658Z,7.30
2024-02-26T14:48:28.910Z,7.30
2024-02-26T14:50:55.853Z,7.30
2024-02-26T14:53:22.668Z,7.30
2024-02-26T14:55:49.480Z,7.30
2024-02-26T14:58:16.663Z,7.30
2024-02-26T15:00:43.602Z,7.30
2024-02-26T15:03:10.571Z,7.30
2024-02-26T15:05:38.853Z,7.30
2024-02-26T15:08:06.402Z,7.30
2024-02-26T15:10:33.193Z,7.30
2024-02-26T15:13:00.002Z,7.30
2024-02-26T15:15:26.773Z,7.30
2024-02-26T15:17:53.746Z,7.30
2024-02-26T15:20:20.881Z,7.30
2024-02-26T15:22:49.030Z,7.40
2024-02-26T15:25:16.442Z,7.40
2024-02-26T15:27:43.464Z,7.30
2024-02-26T15:30:11.423Z,7.40
2024-02-26T15:32:38.270Z,7.30
2024-02-26T15:35:05.933Z,7.30
2024-02-26T15:37:32.759Z,7.40
2024-02-26T15:40:01.057Z,7.30
2024-02-26T15:42:27.896Z,7.30
2024-02-26T15:44:54.813Z,7.30
2024-02-26T15:47:21.621Z,7.30
2024-02-26T15:49:48.486Z,7.40
2024-02-26T15:52:15.348Z,7.40
2024-02-26T15:54:42.185Z,7.40
2024-02-26T15:57:12.686Z,7.40
2024-02-26T15:59:39.771Z,7.40
2024-02-26T16:02:06.968Z,7.40
2024-02-26T16:04:33.787Z,7.40
2024-02-26T16:07:04.069Z,7.40
2024-02-26T16:09:30.922Z,7.40
2024-02-26T16:11:59.787Z,7.40
2024-02-26T16:14:39.449Z,7.40
2024-02-26T16:17:15.821Z,7.40
2024-02-26T16:19:42.686Z,7.40
2024-02-26T16:22:09.514Z,7.40
2024-02-26T16:24:36.357Z,7.40
2024-02-26T16:27:03.286Z,7.40
2024-02-26T16:29:31.475Z,7.40
2024-02-26T16:31:58.310Z,7.40
2024-02-26T16:34:25.196Z,7.40
2024-02-26T16:36:52.220Z,7.40
2024-02-26T16:39:19.375Z,7.40
2024-02-26T16:41:46.251Z,7.40
2024-02-26T16:44:13.103Z,7.40
2024-02-26T16:46:41.307Z,7.40
2024-02-26T16:49:09.010Z,7.40
2024-02-26T16:51:39.140Z,7.40
2024-02-26T16:54:06.134Z,7.50
2024-02-26T16:56:32.953Z,7.40
2024-02-26T16:58:59.762Z,7.40
2024-02-26T17:01:26.610Z,7.40
2024-02-26T17:03:54.815Z,7.40
2024-02-26T17:06:21.692Z,7.50
2024-02-26T17:08:48.585Z,7.40
2024-02-26T17:11:15.439Z,7.50
2024-02-26T17:13:42.245Z,7.50
2024-02-26T17:16:09.127Z,7.50
2024-02-26T17:18:36.069Z,7.50
2024-02-26T17:21:04.786Z,7.50
2024-02-26T17:23:31.593Z,7.50
2024-02-26T17:25:58.365Z,7.50
2024-02-26T17:28:25.151Z,7.50
2024-02-26T17:30:51.969Z,7.50
2024-02-26T17:33:18.903Z,7.50
2024-02-26T17:35:45.767Z,7.50
2024-02-26T17:38:13.872Z,7.50
2024-02-26T17:40:40.708Z,7.50
2024-02-26T17:43:07.496Z,7.50
2024-02-26T17:45:34.308Z,7.50
2024-02-26T17:48:01.265Z,7.50
2024-02-26T17:50:28.167Z,7.50
2024-02-26T17:52:54.971Z,7.50
2024-02-26T17:55:23.322Z,7.50
2024-02-26T17:57:50.120Z,7.50
2024-02-26T18:00:17.398Z,7.50
2024-02-26T18:02:44.185Z,7.50
2024-02-26T18:05:11.070Z,7.50
2024-02-26T18:07:37.846Z,7.50
2024-02-26T18:10:05.376Z,7.50
2024-02-26T18:12:33.579Z,7.50
2024-02-26T18:15:00.467Z,7.50
2024-02-26T18:17:27.408Z,7.50
2024-02-26T18:19:54.303Z,7.50
2024-02-26T18:22:21.123Z,7.50
2024-02-26T18:24:47.922Z,7.50
2024-02-26T18:27:14.737Z,7.50
2024-02-26T18:29:42.920Z,7.60
2024-02-26T18:32:09.703Z,7.50
2024-02-26T18:34:36.580Z,7.60
2024-02-26T18:37:03.777Z,7.50
2024-02-26T18:39:30.715Z,7.60
2024-02-26T18:41:57.669Z,7.60
2024-02-26T18:44:24.689Z,7.60
2024-02-26T18:46:52.828Z,7.60
2024-02-26T18:49:19.695Z,7.50
2024-02-26T18:51:46.561Z,7.50
2024-02-26T18:54:13.507Z,7.50
2024-02-26T18:56:40.362Z,7.60
2024-02-26T18:59:07.157Z,7.60
2024-02-26T19:01:33.982Z,7.50
2024-02-26T19:04:02.340Z,7.50
2024-02-26T19:06:31.041Z,7.60
2024-02-26T19:08:58.129Z,7.50
2024-02-26T19:11:25.068Z,7.50
2024-02-26T19:13:51.966Z,7.50
2024-02-26T19:16:19.316Z,7.50
2024-02-26T19:18:46.340Z,7.60
2024-02-26T19:21:14.506Z,7.60
2024-02-26T19:23:41.339Z,7.50
2024-02-26T19:26:08.243Z,7.60
2024-02-26T19:28:35.064Z,7.50
2024-02-26T19:31:01.877Z,7.50
2024-02-26T19:33:28.819Z,7.50
2024-02-26T19:35:55.692Z,7.50
2024-02-26T19:38:23.881Z,7.50
2024-02-26T19:40:50.716Z,7.50
2024-02-26T19:43:17.518Z,7.60
2024-02-26T19:45:44.526Z,7.50
2024-02-26T19:48:11.431Z,7.50
2024-02-26T19:50:38.289Z,7.50
2024-02-26T19:53:05.166Z,7.50
2024-02-26T19:55:33.305Z,7.50
2024-02-26T19:58:00.211Z,7.50
2024-02-26T20:00:27.295Z,7.60
2024-02-26T20:02:54.247Z,7.50
2024-02-26T20:05:21.103Z,7.50
2024-02-26T20:07:47.895Z,7.50
2024-02-26T20:10:15.099Z,7.50
2024-02-26T20:12:43.349Z,7.50
2024-02-26T20:15:10.359Z,7.50
2024-02-26T20:17:37.415Z,7.50
2024-02-26T20:20:05.006Z,7.50
2024-02-26T20:22:31.844Z,7.50
2024-02-26T20:24:58.654Z,7.50
2024-02-26T20:27:25.557Z,7.40
2024-02-26T20:29:53.855Z,7.50
2024-02-26T20:32:20.714Z,7.50
2024-02-26T20:34:47.628Z,7.40
2024-02-26T20:37:14.504Z,7.40
2024-02-26T20:39:41.371Z,7.40
2024-02-26T20:42:08.417Z,7.40
2024-02-26T20:44:36.965Z,7.40
2024-02-26T20:47:05.406Z,7.40
2024-02-26T20:49:32.395Z,7.30
2024-02-26T20:51:59.296Z,7.30
2024-02-26T20:54:26.171Z,7.30
2024-02-26T20:56:53.028Z,7.30
2024-02-26T20:59:19.830Z,7.30
2024-02-26T21:01:47.854Z,7.30
2024-02-26T21:04:16.236Z,7.30
2024-02-26T21:06:44.322Z,7.30
2024-02-26T21:09:11.314Z,7.30
2024-02-26T21:11:38.136Z,7.30
2024-02-26T21:14:05.268Z,7.20
2024-02-26T21:16:32.068Z,7.20
2024-02-26T21:18:58.950Z,7.20
2024-02-26T21:21:27.322Z,7.20
2024-02-26T21:23:54.181Z,7.20
2024-02-26T21:26:20.986Z,7.10
2024-02-26T21:28:47.785Z,7.10
2024-02-26T21:31:14.541Z,7.10
2024-02-26T21:33:41.475Z,7.10
2024-02-26T21:36:08.746Z,7.10
2024-02-26T21:38:43.164Z,7.10
2024-02-26T21:41:17.036Z,7.00
2024-02-26T21:43:43.958Z,7.00
2024-02-26T21:46:10.800Z,7.00
2024-02-26T21:48:39.921Z,7.00
2024-02-26T21:51:07.408Z,7.00
2024-02-26T21:53:35.667Z,7.00
2024-02-26T21:56:02.840Z,6.90
2024-02-26T21:58:29.632Z,6.90
2024-02-26T22:00:56.584Z,6.90
2024-02-26T22:03:23.520Z,6.90
2024-02-26T22:05:50.917Z,6.90
2024-02-26T22:08:17.834Z,6.90
2024-02-26T22:10:45.951Z,6.90
2024-02-26T22:13:12.856Z,6.90
2024-02-26T22:15:39.723Z,6.90
2024-02-26T22:18:06.693Z,6.80
2024-02-26T22:20:33.536Z,6.90
2024-02-26T22:23:00.350Z,6.80
2024-02-26T22:25:27.283Z,6.80
2024-02-26T22:27:55.433Z,6.80
2024-02-26T22:30:22.402Z,6.80
2024-02-26T22:32:49.217Z,6.80
2024-02-26T22:35:16.143Z,6.70
2024-02-26T22:37:42.964Z,6.80
2024-02-26T22:40:10.662Z,6.70
2024-02-26T22:42:37.594Z,6.70
2024-02-26T22:45:07.537Z,6.70
2024-02-26T22:47:34.418Z,6.70
2024-02-26T22:50:01.317Z,6.70
2024-02-26T22:52:28.194Z,6.70
2024-02-26T22:54:54.959Z,6.60
2024-02-26T22:57:21.800Z,6.70
2024-02-26T22:59:48.594Z,6.70
2024-02-26T23:02:16.803Z,6.70
2024-02-26T23:04:43.656Z,6.60
2024-02-26T23:07:10.490Z,6.60
2024-02-26T23:09:37.446Z,6.60
2024-02-26T23:12:05.051Z,6.60
2024-02-26T23:14:31.885Z,6.60
2024-02-26T23:16:58.680Z,6.60
2024-02-26T23:19:26.913Z,6.60
2024-02-26T23:21:53.712Z,6.50
2024-02-26T23:24:20.583Z,6.50
2024-02-26T23:26:47.404Z,6.50
2024-02-26T23:29:14.239Z,6.60
2024-02-26T23:31:41.035Z,6.50
2024-02-26T23:34:07.914Z,6.50
2024-02-26T23:36:36.139Z,6.50
2024-02-26T23:39:03.076Z,6.50
2024-02-26T23:41:30.057Z,6.50
2024-02-26T23:43:56.851Z,6.50
2024-02-26T23:46:23.650Z,6.50
2024-02-26T23:48:50.498Z,6.40
2024-02-26T23:51:17.331Z,6.40
2024-02-26T23:53:45.473Z,6.40
2024-02-26T23:56:12.281Z,6.40
2024-02-26T23:58:39.213Z,6.30
